Anacostia, District of Columbia
Current Conditions -  °F | °C
As of 10:52 AM on Thursday 29 Jan 2015 (Local Time) from KDCA Reporting Station
Overcast Overcast  
Wind Chill: -2°   Ceiling: 23000
Heat Index:   Visibility: 10mi
Dew Point: -11°   Wind: 7mph
Humidity: 40%   Direction: 190°S
Pressure: 30.3"   Gusts: NA
Location:  38.8618°N, 77.0026°W
Report Text: KDCA 291552Z 19006KT 10SM FEW120 SCT160 OVC230 01/M11 A3030 RMK AO2 SLP259 T00111111
Loading
Personal Weather Stations






























Interactive Weather Map New forecast layout! Learn more

10-Day Weather Forecast

Advertisements
Track Severe Weather on mobile